createdAt,value
2023-02-02T00:02:03.267Z,1.00
2023-02-02T00:04:31.670Z,2.10
2023-02-02T00:06:58.995Z,1.20
2023-02-02T00:09:29.248Z,1.88
2023-02-02T00:11:56.860Z,1.90
2023-02-02T00:14:23.906Z,1.57
2023-02-02T00:16:51.892Z,3.60
2023-02-02T00:19:20.283Z,2.42
2023-02-02T00:21:47.238Z,2.88
2023-02-02T00:24:15.673Z,5.53
2023-02-02T00:26:45.701Z,2.33
2023-02-02T00:29:15.600Z,2.35
2023-02-02T00:31:42.363Z,2.83
2023-02-02T00:34:10.626Z,2.08
2023-02-02T00:36:37.366Z,2.05
2023-02-02T00:39:04.263Z,2.17
2023-02-02T00:41:30.972Z,2.83
2023-02-02T00:43:59.002Z,5.55
2023-02-02T00:46:26.010Z,4.50
2023-02-02T00:48:52.681Z,6.80
2023-02-02T00:51:19.334Z,4.17
2023-02-02T00:53:46.021Z,5.15
2023-02-02T00:56:12.680Z,4.85
2023-02-02T00:58:39.349Z,3.95
2023-02-02T01:01:15.816Z,3.15
2023-02-02T01:03:42.558Z,3.17
2023-02-02T01:06:09.204Z,4.30
2023-02-02T01:08:35.856Z,3.80
2023-02-02T01:11:02.583Z,2.88
2023-02-02T01:13:29.252Z,2.50
2023-02-02T01:15:56.518Z,2.60
2023-02-02T01:18:24.894Z,1.88
2023-02-02T01:20:57.178Z,0.75
2023-02-02T01:23:23.957Z,0.70
2023-02-02T01:25:53.822Z,2.67
2023-02-02T01:28:20.516Z,1.97
2023-02-02T01:30:47.294Z,4.30
2023-02-02T01:33:13.962Z,2.40
2023-02-02T01:35:46.743Z,1.35
2023-02-02T01:38:13.540Z,1.83
2023-02-02T01:40:45.175Z,1.47
2023-02-02T01:43:23.193Z,1.77
2023-02-02T01:45:50.277Z,1.05
2023-02-02T01:48:17.867Z,1.30
2023-02-02T01:50:49.644Z,2.65
2023-02-02T01:53:18.199Z,2.37
2023-02-02T01:55:44.925Z,1.85
2023-02-02T01:58:15.610Z,2.92
2023-02-02T02:00:45.088Z,2.28
2023-02-02T02:03:15.744Z,1.50
2023-02-02T02:05:47.971Z,1.43
2023-02-02T02:08:19.764Z,2.03
2023-02-02T02:10:46.874Z,2.22
2023-02-02T02:13:14.266Z,2.40
2023-02-02T02:15:47.702Z,1.98
2023-02-02T02:18:26.150Z,1.70
2023-02-02T02:21:31.471Z,1.38
2023-02-02T02:24:50.571Z,2.28
2023-02-02T02:27:55.214Z,1.30
2023-02-02T02:30:38.547Z,2.35
2023-02-02T02:33:11.749Z,1.70
2023-02-02T02:35:46.779Z,1.55
2023-02-02T02:38:20.316Z,1.60
2023-02-02T02:40:51.591Z,1.80
2023-02-02T02:43:21.428Z,2.58
2023-02-02T02:45:48.471Z,1.00
2023-02-02T02:48:16.736Z,1.20
2023-02-02T02:50:43.430Z,0.50
2023-02-02T02:53:15.405Z,1.02
2023-02-02T02:55:49.268Z,0.70
2023-02-02T02:58:20.303Z,0.60
2023-02-02T03:00:54.023Z,0.82
2023-02-02T03:03:39.130Z,2.17
2023-02-02T03:06:10.846Z,1.02
2023-02-02T03:08:41.029Z,1.85
2023-02-02T03:11:10.531Z,1.07
2023-02-02T03:13:37.381Z,1.40
2023-02-02T03:16:04.652Z,1.50
2023-02-02T03:18:33.750Z,2.08
2023-02-02T03:21:00.492Z,1.60
2023-02-02T03:23:27.799Z,1.90
2023-02-02T03:25:54.749Z,5.95
2023-02-02T03:28:23.581Z,4.05
2023-02-02T03:30:51.740Z,1.85
2023-02-02T03:33:18.530Z,3.67
2023-02-02T03:35:46.798Z,1.37
2023-02-02T03:38:13.465Z,1.70
2023-02-02T03:40:40.513Z,1.70
2023-02-02T03:43:07.203Z,1.85
2023-02-02T03:45:34.205Z,2.17
2023-02-02T03:48:00.978Z,1.87
2023-02-02T03:50:27.638Z,2.65
2023-02-02T03:52:55.697Z,2.92
2023-02-02T03:55:22.635Z,2.28
2023-02-02T03:57:49.528Z,2.53
2023-02-02T04:00:16.692Z,2.13
2023-02-02T04:02:43.414Z,3.70
2023-02-02T04:05:10.088Z,3.50
2023-02-02T04:07:36.882Z,2.95
2023-02-02T04:10:05.841Z,1.92
2023-02-02T04:12:32.561Z,3.60
2023-02-02T04:14:59.236Z,3.05
2023-02-02T04:17:25.914Z,3.72
2023-02-02T04:19:52.552Z,2.65
2023-02-02T04:22:19.226Z,5.10
2023-02-02T04:24:45.879Z,0.77
2023-02-02T04:27:13.934Z,2.08
2023-02-02T04:29:40.621Z,1.27
2023-02-02T04:32:07.280Z,1.85
2023-02-02T04:34:33.952Z,2.05
2023-02-02T04:37:00.635Z,2.07
2023-02-02T04:39:27.364Z,3.17
2023-02-02T04:41:54.058Z,2.67
2023-02-02T04:44:22.109Z,1.63
2023-02-02T04:46:48.785Z,1.35
2023-02-02T04:49:15.520Z,2.50
2023-02-02T04:51:42.220Z,2.58
2023-02-02T04:54:08.966Z,2.97
2023-02-02T04:56:36.129Z,1.83
2023-02-02T04:59:02.826Z,2.08
2023-02-02T05:01:30.976Z,0.97
2023-02-02T05:03:58.228Z,1.13
2023-02-02T05:06:25.015Z,1.77
2023-02-02T05:08:51.835Z,4.15
2023-02-02T05:11:20.146Z,2.88
2023-02-02T05:13:47.720Z,4.17
2023-02-02T05:16:15.376Z,3.70
2023-02-02T05:18:48.219Z,2.03
2023-02-02T05:21:14.874Z,3.95
2023-02-02T05:23:41.536Z,3.15
2023-02-02T05:26:12.103Z,2.23
2023-02-02T05:28:38.875Z,4.32
2023-02-02T05:31:06.179Z,5.05
2023-02-02T05:33:32.867Z,5.28
2023-02-02T05:36:00.899Z,5.35
2023-02-02T05:38:27.546Z,5.07
2023-02-02T05:40:54.196Z,9.10
2023-02-02T05:43:24.204Z,10.68
2023-02-02T05:45:50.877Z,6.20
2023-02-02T05:48:17.625Z,4.65
2023-02-02T05:50:48.990Z,3.20
2023-02-02T05:53:17.137Z,4.75
2023-02-02T05:55:43.786Z,3.30
2023-02-02T05:58:10.470Z,3.55
2023-02-02T06:00:37.143Z,3.08
2023-02-02T06:03:04.088Z,4.00
2023-02-02T06:05:30.871Z,2.50
2023-02-02T06:07:57.517Z,2.38
2023-02-02T06:10:25.629Z,1.60
2023-02-02T06:12:52.314Z,2.13
2023-02-02T06:15:18.976Z,3.10
2023-02-02T06:17:45.665Z,3.30
2023-02-02T06:20:13.078Z,2.80
2023-02-02T06:22:39.751Z,2.90
2023-02-02T06:25:07.180Z,3.42
2023-02-02T06:27:35.217Z,3.23
2023-02-02T06:30:01.965Z,3.88
2023-02-02T06:32:29.137Z,1.63
2023-02-02T06:34:55.850Z,3.22
2023-02-02T06:37:22.536Z,2.08
2023-02-02T06:39:49.192Z,2.53
2023-02-02T06:42:21.640Z,2.28
2023-02-02T06:44:50.041Z,1.85
2023-02-02T06:47:16.738Z,3.58
2023-02-02T06:49:43.416Z,2.78
2023-02-02T06:52:10.108Z,4.57
2023-02-02T06:54:36.770Z,3.30
2023-02-02T06:57:03.603Z,2.22
2023-02-02T06:59:30.293Z,4.03
2023-02-02T07:01:58.370Z,3.85
2023-02-02T07:04:25.135Z,4.43
2023-02-02T07:06:51.795Z,4.32
2023-02-02T07:09:18.630Z,6.10
2023-02-02T07:11:45.403Z,7.35
2023-02-02T07:14:12.462Z,4.50
2023-02-02T07:16:39.129Z,5.30
2023-02-02T07:19:07.400Z,4.85
2023-02-02T07:21:34.120Z,6.03
2023-02-02T07:24:01.145Z,3.53
2023-02-02T07:26:28.071Z,4.38
2023-02-02T07:28:54.789Z,3.70
2023-02-02T07:31:23.777Z,2.45
2023-02-02T07:33:50.566Z,2.80
2023-02-02T07:36:21.000Z,2.25
2023-02-02T07:38:50.054Z,3.67
2023-02-02T07:41:16.870Z,3.47
2023-02-02T07:43:46.146Z,2.83
2023-02-02T07:46:12.892Z,2.83
2023-02-02T07:48:39.852Z,3.95
2023-02-02T07:51:08.115Z,2.42
2023-02-02T07:53:36.195Z,2.80
2023-02-02T07:56:07.884Z,2.28
2023-02-02T07:58:34.553Z,2.17
2023-02-02T08:01:02.104Z,2.15
2023-02-02T08:03:29.049Z,1.77
2023-02-02T08:05:56.230Z,1.53
2023-02-02T08:08:22.983Z,2.30
2023-02-02T08:10:51.923Z,2.55
2023-02-02T08:13:18.753Z,1.05
2023-02-02T08:15:45.736Z,1.02
2023-02-02T08:18:12.474Z,0.60
2023-02-02T08:20:39.129Z,0.65
2023-02-02T08:23:05.911Z,0.65
2023-02-02T08:25:32.593Z,1.08
2023-02-02T08:28:00.561Z,0.60
2023-02-02T08:30:27.507Z,1.60
2023-02-02T08:32:55.305Z,1.45
2023-02-02T08:35:22.303Z,0.93
2023-02-02T08:37:49.560Z,0.98
2023-02-02T08:40:16.784Z,1.20
2023-02-02T08:42:43.498Z,1.00
2023-02-02T08:46:03.005Z,3.20
2023-02-02T08:48:10.843Z,1.45
2023-02-02T08:50:38.922Z,2.05
2023-02-02T08:53:05.834Z,1.35
2023-02-02T08:55:32.523Z,2.80
2023-02-02T08:57:59.175Z,1.83
2023-02-02T09:00:27.342Z,2.75
2023-02-02T09:02:54.021Z,1.80
2023-02-02T09:05:20.698Z,2.80
2023-02-02T09:07:47.393Z,3.43
2023-02-02T09:10:14.143Z,2.20
2023-02-02T09:12:40.807Z,3.42
2023-02-02T09:15:07.994Z,4.30
2023-02-02T09:17:36.034Z,1.60
2023-02-02T09:20:02.767Z,1.97
2023-02-02T09:22:29.465Z,2.88
2023-02-02T09:24:56.201Z,6.20
2023-02-02T09:27:22.900Z,4.85
2023-02-02T09:29:49.567Z,6.32
2023-02-02T09:32:16.248Z,3.37
2023-02-02T09:34:44.280Z,4.50
2023-02-02T09:37:10.972Z,2.67
2023-02-02T09:39:37.666Z,3.97
2023-02-02T09:42:26.554Z,2.90
2023-02-02T09:44:59.744Z,3.30
2023-02-02T09:47:41.404Z,2.58
2023-02-02T09:50:18.456Z,2.22
2023-02-02T09:52:49.423Z,2.67
2023-02-02T09:55:22.930Z,2.05
2023-02-02T09:57:54.014Z,2.63
2023-02-02T10:00:29.569Z,2.15
2023-02-02T10:03:01.487Z,3.40
2023-02-02T10:05:36.760Z,4.40
2023-02-02T10:08:07.580Z,3.00
2023-02-02T10:10:39.735Z,1.70
2023-02-02T10:13:11.713Z,1.05
2023-02-02T10:15:42.189Z,0.85
2023-02-02T10:18:16.373Z,0.98
2023-02-02T10:20:47.715Z,1.52
2023-02-02T10:23:22.139Z,1.23
2023-02-02T10:25:55.820Z,1.05
2023-02-02T10:28:38.713Z,0.93
2023-02-02T10:31:15.153Z,1.27
2023-02-02T10:33:43.962Z,2.55
2023-02-02T10:36:22.915Z,1.00
2023-02-02T10:38:55.670Z,0.63
2023-02-02T10:41:30.642Z,1.65
2023-02-02T10:44:21.862Z,1.30
2023-02-02T10:46:52.215Z,1.25
2023-02-02T10:49:27.237Z,2.00
2023-02-02T10:52:04.591Z,1.65
2023-02-02T10:54:57.581Z,1.65
2023-02-02T10:57:46.708Z,1.20
2023-02-02T11:00:23.184Z,2.25
2023-02-02T11:02:50.977Z,1.63
2023-02-02T11:05:21.583Z,3.45
2023-02-02T11:07:50.036Z,2.80
2023-02-02T11:10:16.828Z,2.08
2023-02-02T11:12:46.803Z,4.70
2023-02-02T11:15:25.087Z,1.40
2023-02-02T11:17:52.736Z,2.13
2023-02-02T11:20:30.712Z,2.83
2023-02-02T11:23:03.297Z,1.63
2023-02-02T11:25:33.292Z,1.67
2023-02-02T11:28:01.696Z,1.33
2023-02-02T11:30:33.113Z,0.93
2023-02-02T11:33:00.023Z,1.38
2023-02-02T11:35:28.242Z,1.35
2023-02-02T11:38:00.346Z,1.63
2023-02-02T11:40:31.904Z,1.20
2023-02-02T11:43:00.623Z,1.63
2023-02-02T11:45:33.156Z,1.45
2023-02-02T11:48:07.580Z,1.00
2023-02-02T11:50:35.190Z,1.30
2023-02-02T11:53:02.068Z,3.87
2023-02-02T11:55:31.760Z,1.40
2023-02-02T11:58:26.914Z,2.30
2023-02-02T12:00:56.674Z,1.23
2023-02-02T12:03:27.095Z,1.42
2023-02-02T12:05:53.990Z,1.23
2023-02-02T12:08:21.024Z,1.67
2023-02-02T12:10:56.567Z,1.30
2023-02-02T12:13:43.443Z,1.73
2023-02-02T12:16:38.439Z,2.03
2023-02-02T12:19:19.963Z,1.40
2023-02-02T12:21:52.927Z,1.55
2023-02-02T12:24:28.930Z,2.08
2023-02-02T12:27:08.521Z,2.08
2023-02-02T12:29:46.169Z,1.23
2023-02-02T12:32:26.073Z,0.70
2023-02-02T12:35:04.370Z,1.30
2023-02-02T12:37:45.299Z,1.20
2023-02-02T12:40:30.072Z,1.25
2023-02-02T12:43:13.295Z,1.27
2023-02-02T12:45:57.418Z,1.40
2023-02-02T12:48:39.141Z,0.90
2023-02-02T12:51:16.562Z,1.40
2023-02-02T12:54:32.635Z,3.08
2023-02-02T12:56:59.168Z,1.25
2023-02-02T12:59:49.578Z,1.57
2023-02-02T13:02:25.471Z,1.08
2023-02-02T13:05:04.860Z,1.50
2023-02-02T13:07:38.439Z,1.20
2023-02-02T13:10:19.418Z,1.65
2023-02-02T13:12:51.884Z,1.20
2023-02-02T13:15:24.090Z,2.97
2023-02-02T13:17:54.595Z,2.47
2023-02-02T13:20:30.452Z,2.58
2023-02-02T13:23:02.723Z,2.15
2023-02-02T13:25:34.582Z,2.57
2023-02-02T13:28:04.623Z,3.58
2023-02-02T13:30:35.920Z,3.42
2023-02-02T13:33:06.055Z,2.38
2023-02-02T13:35:38.134Z,3.00
2023-02-02T13:38:13.671Z,3.00
2023-02-02T13:40:42.808Z,4.93
2023-02-02T13:43:22.518Z,2.75
2023-02-02T13:46:00.674Z,3.13
2023-02-02T13:48:36.773Z,4.00
2023-02-02T13:51:35.988Z,3.80
2023-02-02T13:54:34.376Z,3.92
2023-02-02T13:57:12.061Z,3.40
2023-02-02T14:00:02.471Z,4.00
2023-02-02T14:02:35.729Z,4.07
2023-02-02T14:05:05.549Z,4.87
2023-02-02T14:07:40.771Z,3.38
2023-02-02T14:10:23.312Z,4.18
2023-02-02T14:12:50.647Z,3.75
2023-02-02T14:15:17.914Z,3.75
2023-02-02T14:17:55.920Z,3.33
2023-02-02T14:20:45.482Z,3.17
2023-02-02T14:23:52.254Z,3.15
2023-02-02T14:26:40.335Z,4.07
2023-02-02T14:29:34.810Z,5.03
2023-02-02T14:32:03.901Z,4.40
2023-02-02T14:34:34.324Z,3.38
2023-02-02T14:37:34.829Z,3.28
2023-02-02T14:40:17.812Z,4.60
2023-02-02T14:42:56.379Z,4.55
2023-02-02T14:45:27.746Z,4.10
2023-02-02T14:47:55.869Z,3.00
2023-02-02T14:50:34.010Z,2.70
2023-02-02T14:53:04.908Z,2.92
2023-02-02T14:55:32.221Z,3.05
2023-02-02T14:58:02.235Z,2.90
2023-02-02T15:00:31.537Z,3.88
2023-02-02T15:03:31.648Z,4.50
2023-02-02T15:06:06.314Z,2.50
2023-02-02T15:08:33.125Z,4.22
2023-02-02T15:11:05.757Z,2.67
2023-02-02T15:13:37.187Z,4.15
2023-02-02T15:16:09.648Z,2.78
2023-02-02T15:18:41.994Z,4.25
2023-02-02T15:21:15.214Z,2.75
2023-02-02T15:23:45.222Z,4.00
2023-02-02T15:26:17.497Z,4.30
2023-02-02T15:28:48.860Z,3.28
2023-02-02T15:31:22.859Z,3.60
2023-02-02T15:33:52.114Z,3.50
2023-02-02T15:36:24.030Z,3.37
2023-02-02T15:38:53.637Z,4.93
2023-02-02T15:41:24.349Z,4.80
2023-02-02T15:43:51.489Z,8.43
2023-02-02T15:46:21.126Z,11.43
2023-02-02T15:49:31.343Z,7.43
2023-02-02T15:52:10.210Z,7.82
2023-02-02T15:54:37.062Z,10.27
2023-02-02T15:57:04.497Z,8.32
2023-02-02T15:59:39.333Z,5.47
2023-02-02T16:02:21.177Z,4.60
2023-02-02T16:04:48.225Z,6.18
2023-02-02T16:07:19.765Z,4.30
2023-02-02T16:09:46.810Z,3.95
2023-02-02T16:12:15.753Z,4.45
2023-02-02T16:14:42.652Z,4.63
2023-02-02T16:17:13.411Z,5.22
2023-02-02T16:19:42.603Z,5.50
2023-02-02T16:22:15.129Z,4.28
2023-02-02T16:24:47.841Z,3.63
2023-02-02T16:27:19.147Z,3.47
2023-02-02T16:29:46.557Z,3.88
2023-02-02T16:32:27.966Z,3.28
2023-02-02T16:34:55.158Z,3.53
2023-02-02T16:37:23.887Z,3.05
2023-02-02T16:39:52.004Z,3.80
2023-02-02T16:42:26.543Z,2.20
2023-02-02T16:44:54.045Z,2.28
2023-02-02T16:47:35.713Z,2.80
2023-02-02T16:50:19.542Z,3.67
2023-02-02T16:52:51.785Z,4.17
2023-02-02T16:55:21.707Z,4.22
2023-02-02T17:01:17.022Z,4.13
2023-02-02T17:04:27.388Z,5.70
2023-02-02T17:06:57.011Z,4.30
2023-02-02T17:09:34.581Z,5.25
2023-02-02T17:12:05.893Z,7.25
2023-02-02T17:14:35.116Z,6.70
2023-02-02T17:17:06.760Z,7.15
2023-02-02T17:19:33.617Z,7.83
2023-02-02T17:22:02.589Z,8.18
2023-02-02T17:24:29.618Z,12.13
2023-02-02T17:26:56.529Z,8.65
2023-02-02T17:29:27.501Z,14.13
2023-02-02T17:31:54.311Z,15.53
2023-02-02T17:34:21.100Z,10.43
2023-02-02T17:36:47.835Z,9.20
2023-02-02T17:39:23.198Z,12.55
2023-02-02T17:41:49.887Z,10.27
2023-02-02T17:44:16.583Z,11.30
2023-02-02T17:46:44.656Z,9.13
2023-02-02T17:49:11.386Z,10.85
2023-02-02T17:51:38.367Z,10.52
2023-02-02T17:54:10.273Z,10.70
2023-02-02T17:56:36.960Z,10.73
2023-02-02T17:59:03.617Z,11.98
2023-02-02T18:01:30.365Z,14.90
2023-02-02T18:03:58.594Z,12.63
2023-02-02T18:06:25.296Z,13.25
2023-02-02T18:08:52.015Z,14.33
2023-02-02T18:11:18.736Z,13.02
2023-02-02T18:13:45.470Z,16.80
2023-02-02T18:16:13.216Z,23.38
2023-02-02T18:18:40.043Z,19.70
2023-02-02T18:21:11.902Z,17.97
2023-02-02T18:23:38.652Z,15.77
2023-02-02T18:26:09.891Z,13.88
2023-02-02T18:28:36.833Z,15.30
2023-02-02T18:31:07.711Z,18.58
2023-02-02T18:33:34.404Z,16.10
2023-02-02T18:36:01.048Z,16.17
2023-02-02T18:38:29.100Z,17.63
2023-02-02T18:40:56.843Z,16.88
2023-02-02T18:43:23.512Z,13.25
2023-02-02T18:45:57.805Z,12.93
2023-02-02T18:48:24.475Z,13.07
2023-02-02T18:50:51.143Z,15.00
2023-02-02T18:53:17.833Z,13.57
2023-02-02T18:55:45.867Z,13.43
2023-02-02T18:58:12.552Z,13.47
2023-02-02T19:00:39.265Z,12.07
2023-02-02T19:03:06.022Z,13.85
2023-02-02T19:05:32.716Z,15.18
2023-02-02T19:07:59.398Z,15.05
2023-02-02T19:10:27.351Z,14.37
2023-02-02T19:12:58.403Z,15.73
2023-02-02T19:15:25.442Z,13.38
2023-02-02T19:17:54.221Z,14.60
2023-02-02T19:20:26.691Z,16.38
2023-02-02T19:22:59.892Z,13.20
2023-02-02T19:25:26.993Z,15.65
2023-02-02T19:27:53.955Z,15.52
2023-02-02T19:30:23.354Z,14.32
2023-02-02T19:32:50.351Z,17.55
2023-02-02T19:35:20.039Z,23.53
2023-02-02T19:37:47.073Z,20.65
2023-02-02T19:40:17.678Z,14.13
2023-02-02T19:42:45.697Z,13.60
2023-02-02T19:45:22.866Z,14.30
2023-02-02T19:47:50.109Z,14.90
2023-02-02T19:50:19.815Z,15.57
2023-02-02T19:52:48.103Z,19.17
2023-02-02T19:55:22.448Z,15.88
2023-02-02T19:57:49.462Z,18.70
2023-02-02T20:00:20.076Z,17.40
2023-02-02T20:02:57.458Z,18.20
2023-02-02T20:05:25.696Z,18.55
2023-02-02T20:07:57.899Z,17.63
2023-02-02T20:10:27.277Z,30.35
2023-02-02T20:12:54.945Z,27.50
2023-02-02T20:15:28.791Z,35.78
2023-02-02T20:17:58.468Z,20.08
2023-02-02T20:20:27.467Z,17.58
2023-02-02T20:22:55.577Z,19.15
2023-02-02T20:25:22.634Z,19.10
2023-02-02T20:27:50.110Z,18.75
2023-02-02T20:30:24.065Z,18.15
2023-02-02T20:32:54.270Z,20.52
2023-02-02T20:35:32.977Z,16.33
2023-02-02T20:37:59.772Z,17.57
2023-02-02T20:40:28.673Z,18.02
2023-02-02T20:42:55.636Z,17.70
2023-02-02T20:45:22.317Z,16.63
2023-02-02T20:47:49.356Z,16.42
2023-02-02T20:50:18.840Z,15.77
2023-02-02T20:52:46.900Z,16.27
2023-02-02T20:55:13.629Z,16.70
2023-02-02T20:57:40.333Z,16.63
2023-02-02T21:00:10.674Z,19.38
2023-02-02T21:02:37.676Z,19.27
2023-02-02T21:05:05.260Z,19.70
2023-02-02T21:07:31.984Z,20.13
2023-02-02T21:10:00.024Z,20.08
2023-02-02T21:12:26.730Z,19.40
2023-02-02T21:14:53.497Z,19.47
2023-02-02T21:17:20.391Z,19.65
2023-02-02T21:19:47.114Z,18.52
2023-02-02T21:22:13.995Z,20.80
2023-02-02T21:24:41.053Z,20.85
2023-02-02T21:27:09.578Z,18.97
2023-02-02T21:29:36.253Z,21.42
2023-02-02T21:32:03.546Z,19.30
2023-02-02T21:34:31.215Z,18.48
2023-02-02T21:36:59.048Z,17.48
2023-02-02T21:39:29.135Z,17.27
2023-02-02T21:42:09.816Z,18.00
2023-02-02T21:44:40.783Z,16.85
2023-02-02T21:47:23.134Z,20.20
2023-02-02T21:49:49.833Z,18.20
2023-02-02T21:52:19.154Z,19.40
2023-02-02T21:54:46.935Z,18.17
2023-02-02T21:57:17.112Z,18.42
2023-02-02T21:59:45.720Z,19.77
2023-02-02T22:02:37.750Z,19.30
2023-02-02T22:05:16.011Z,19.23
2023-02-02T22:07:46.109Z,19.13
2023-02-02T22:10:27.748Z,20.92
2023-02-02T22:12:54.605Z,25.92
2023-02-02T22:15:33.171Z,23.85
2023-02-02T22:18:11.135Z,20.73
2023-02-02T22:20:37.902Z,22.30
2023-02-02T22:23:04.591Z,22.67
2023-02-02T22:25:33.912Z,21.60
2023-02-02T22:28:04.918Z,21.02
2023-02-02T22:30:37.300Z,21.50
2023-02-02T22:33:04.462Z,21.60
2023-02-02T22:35:31.475Z,22.20
2023-02-02T22:37:58.161Z,20.48
2023-02-02T22:40:25.335Z,22.73
2023-02-02T22:42:54.199Z,20.23
2023-02-02T22:45:20.900Z,20.35
2023-02-02T22:47:49.346Z,23.58
2023-02-02T22:50:16.855Z,19.90
2023-02-02T22:52:43.791Z,18.58
2023-02-02T22:55:11.394Z,18.17
2023-02-02T22:57:38.218Z,19.65
2023-02-02T23:00:06.153Z,19.90
2023-02-02T23:02:32.850Z,17.95
2023-02-02T23:05:00.886Z,18.35
2023-02-02T23:07:27.551Z,20.03
2023-02-02T23:09:54.233Z,19.75
2023-02-02T23:12:20.922Z,21.33
2023-02-02T23:14:47.643Z,19.50
2023-02-02T23:17:15.165Z,17.52
2023-02-02T23:19:41.863Z,20.73
2023-02-02T23:22:09.929Z,17.63
2023-02-02T23:24:36.660Z,19.73
2023-02-02T23:27:03.341Z,19.27
2023-02-02T23:29:30.017Z,18.98
2023-02-02T23:31:56.756Z,19.20
2023-02-02T23:34:23.476Z,18.63
2023-02-02T23:36:50.190Z,19.23
2023-02-02T23:39:18.200Z,14.82
2023-02-02T23:41:44.897Z,15.68
2023-02-02T23:44:11.616Z,10.93
2023-02-02T23:46:39.339Z,10.38
2023-02-02T23:49:06.043Z,9.98
2023-02-02T23:51:32.996Z,10.82
2023-02-02T23:54:00.560Z,10.95
2023-02-02T23:56:28.810Z,9.73
2023-02-02T23:58:55.500Z,11.55
